sensor_id;sensor_type;location;lat;lon;timestamp;P1;durP1;ratioP1;P2;durP2;ratioP2
6205;SDS011;3136;48.788;9.772;2023-03-29T00:01:57;3.27;;;2.30;;
6205;SDS011;3136;48.788;9.772;2023-03-29T00:04:23;6.63;;;3.13;;
6205;SDS011;3136;48.788;9.772;2023-03-29T00:06:51;6.53;;;2.77;;
6205;SDS011;3136;48.788;9.772;2023-03-29T00:09:17;2.83;;;2.30;;
6205;SDS011;3136;48.788;9.772;2023-03-29T00:11:44;5.87;;;2.83;;
6205;SDS011;3136;48.788;9.772;2023-03-29T00:14:10;13.47;;;7.30;;
6205;SDS011;3136;48.788;9.772;2023-03-29T00:16:36;8.53;;;4.37;;
6205;SDS011;3136;48.788;9.772;2023-03-29T00:19:02;9.10;;;6.10;;
6205;SDS011;3136;48.788;9.772;2023-03-29T00:21:28;8.30;;;5.00;;
6205;SDS011;3136;48.788;9.772;2023-03-29T00:23:55;3.20;;;2.50;;
6205;SDS011;3136;48.788;9.772;2023-03-29T00:26:21;10.47;;;5.77;;
6205;SDS011;3136;48.788;9.772;2023-03-29T00:28:46;8.63;;;5.33;;
6205;SDS011;3136;48.788;9.772;2023-03-29T00:31:13;7.10;;;4.93;;
6205;SDS011;3136;48.788;9.772;2023-03-29T00:33:40;11.33;;;6.60;;
6205;SDS011;3136;48.788;9.772;2023-03-29T00:36:06;13.20;;;6.90;;
6205;SDS011;3136;48.788;9.772;2023-03-29T00:38:34;18.33;;;9.33;;
6205;SDS011;3136;48.788;9.772;2023-03-29T00:41:00;18.67;;;9.53;;
6205;SDS011;3136;48.788;9.772;2023-03-29T00:43:25;6.37;;;3.73;;
6205;SDS011;3136;48.788;9.772;2023-03-29T00:45:51;3.83;;;2.50;;
6205;SDS011;3136;48.788;9.772;2023-03-29T00:48:19;4.00;;;2.33;;
6205;SDS011;3136;48.788;9.772;2023-03-29T00:50:54;7.40;;;2.43;;
6205;SDS011;3136;48.788;9.772;2023-03-29T00:53:28;8.10;;;4.73;;
6205;SDS011;3136;48.788;9.772;2023-03-29T00:56:00;6.43;;;3.50;;
6205;SDS011;3136;48.788;9.772;2023-03-29T00:58:35;3.30;;;2.70;;
6205;SDS011;3136;48.788;9.772;2023-03-29T01:01:22;3.10;;;2.43;;
6205;SDS011;3136;48.788;9.772;2023-03-29T01:03:53;3.00;;;2.13;;
6205;SDS011;3136;48.788;9.772;2023-03-29T01:06:27;2.67;;;2.20;;
6205;SDS011;3136;48.788;9.772;2023-03-29T01:08:56;5.87;;;3.77;;
6205;SDS011;3136;48.788;9.772;2023-03-29T01:11:29;35.37;;;18.83;;
6205;SDS011;3136;48.788;9.772;2023-03-29T01:14:00;49.67;;;25.90;;
6205;SDS011;3136;48.788;9.772;2023-03-29T01:16:34;36.83;;;20.03;;
6205;SDS011;3136;48.788;9.772;2023-03-29T01:19:04;22.73;;;13.50;;
6205;SDS011;3136;48.788;9.772;2023-03-29T01:21:34;23.43;;;12.47;;
6205;SDS011;3136;48.788;9.772;2023-03-29T01:32:16;3.83;;;1.83;;
6205;SDS011;3136;48.788;9.772;2023-03-29T01:35:00;3.60;;;1.80;;
6205;SDS011;3136;48.788;9.772;2023-03-29T01:37:49;2.10;;;1.90;;
6205;SDS011;3136;48.788;9.772;2023-03-29T01:40:14;2.57;;;1.70;;
6205;SDS011;3136;48.788;9.772;2023-03-29T01:42:54;3.57;;;1.60;;
6205;SDS011;3136;48.788;9.772;2023-03-29T01:45:45;3.37;;;1.90;;
6205;SDS011;3136;48.788;9.772;2023-03-29T01:48:24;7.93;;;4.07;;
6205;SDS011;3136;48.788;9.772;2023-03-29T01:51:03;9.47;;;4.77;;
6205;SDS011;3136;48.788;9.772;2023-03-29T01:56:06;2.70;;;1.83;;
6205;SDS011;3136;48.788;9.772;2023-03-29T01:58:37;2.70;;;1.50;;
6205;SDS011;3136;48.788;9.772;2023-03-29T02:01:07;3.33;;;1.87;;
6205;SDS011;3136;48.788;9.772;2023-03-29T02:03:39;3.20;;;2.03;;
6205;SDS011;3136;48.788;9.772;2023-03-29T02:06:12;14.10;;;6.73;;
6205;SDS011;3136;48.788;9.772;2023-03-29T02:08:40;33.90;;;16.60;;
6205;SDS011;3136;48.788;9.772;2023-03-29T02:11:08;41.20;;;21.10;;
6205;SDS011;3136;48.788;9.772;2023-03-29T02:13:34;45.33;;;23.20;;
6205;SDS011;3136;48.788;9.772;2023-03-29T02:16:07;46.27;;;23.47;;
6205;SDS011;3136;48.788;9.772;2023-03-29T02:18:36;16.33;;;8.87;;
6205;SDS011;3136;48.788;9.772;2023-03-29T02:21:03;4.30;;;3.00;;
6205;SDS011;3136;48.788;9.772;2023-03-29T02:23:32;2.87;;;2.40;;
6205;SDS011;3136;48.788;9.772;2023-03-29T02:26:01;2.87;;;2.30;;
6205;SDS011;3136;48.788;9.772;2023-03-29T02:28:28;6.40;;;2.87;;
6205;SDS011;3136;48.788;9.772;2023-03-29T02:31:12;17.10;;;9.07;;
6205;SDS011;3136;48.788;9.772;2023-03-29T02:37:08;5.77;;;4.10;;
6205;SDS011;3136;48.788;9.772;2023-03-29T02:39:17;3.83;;;2.60;;
6205;SDS011;3136;48.788;9.772;2023-03-29T02:41:44;2.77;;;2.23;;
6205;SDS011;3136;48.788;9.772;2023-03-29T02:44:35;3.40;;;2.37;;
6205;SDS011;3136;48.788;9.772;2023-03-29T02:47:16;4.57;;;2.63;;
6205;SDS011;3136;48.788;9.772;2023-03-29T02:50:15;3.93;;;2.80;;
6205;SDS011;3136;48.788;9.772;2023-03-29T02:52:42;3.80;;;2.73;;
6205;SDS011;3136;48.788;9.772;2023-03-29T02:55:16;11.90;;;7.07;;
6205;SDS011;3136;48.788;9.772;2023-03-29T02:57:43;7.20;;;3.37;;
6205;SDS011;3136;48.788;9.772;2023-03-29T03:00:09;5.07;;;3.17;;
6205;SDS011;3136;48.788;9.772;2023-03-29T03:02:36;4.47;;;3.13;;
6205;SDS011;3136;48.788;9.772;2023-03-29T03:05:02;6.47;;;3.40;;
6205;SDS011;3136;48.788;9.772;2023-03-29T03:07:29;5.50;;;3.13;;
6205;SDS011;3136;48.788;9.772;2023-03-29T03:09:55;3.30;;;2.70;;
6205;SDS011;3136;48.788;9.772;2023-03-29T03:12:21;6.20;;;2.50;;
6205;SDS011;3136;48.788;9.772;2023-03-29T03:14:47;3.97;;;2.53;;
6205;SDS011;3136;48.788;9.772;2023-03-29T03:17:13;4.33;;;2.70;;
6205;SDS011;3136;48.788;9.772;2023-03-29T03:19:39;4.03;;;2.07;;
6205;SDS011;3136;48.788;9.772;2023-03-29T03:22:04;3.20;;;2.00;;
6205;SDS011;3136;48.788;9.772;2023-03-29T03:24:31;3.50;;;1.93;;
6205;SDS011;3136;48.788;9.772;2023-03-29T03:26:57;3.60;;;1.93;;
6205;SDS011;3136;48.788;9.772;2023-03-29T03:29:23;2.40;;;2.20;;
6205;SDS011;3136;48.788;9.772;2023-03-29T03:31:50;3.43;;;1.87;;
6205;SDS011;3136;48.788;9.772;2023-03-29T03:34:17;2.73;;;2.00;;
6205;SDS011;3136;48.788;9.772;2023-03-29T03:36:43;5.07;;;2.20;;
6205;SDS011;3136;48.788;9.772;2023-03-29T03:39:11;3.77;;;1.93;;
6205;SDS011;3136;48.788;9.772;2023-03-29T03:41:37;5.10;;;1.90;;
6205;SDS011;3136;48.788;9.772;2023-03-29T03:44:03;2.73;;;1.80;;
6205;SDS011;3136;48.788;9.772;2023-03-29T03:46:29;2.63;;;1.80;;
6205;SDS011;3136;48.788;9.772;2023-03-29T03:48:54;4.90;;;2.03;;
6205;SDS011;3136;48.788;9.772;2023-03-29T03:51:20;3.77;;;2.20;;
6205;SDS011;3136;48.788;9.772;2023-03-29T03:53:46;3.10;;;2.00;;
6205;SDS011;3136;48.788;9.772;2023-03-29T03:56:11;3.20;;;2.83;;
6205;SDS011;3136;48.788;9.772;2023-03-29T03:58:37;4.40;;;3.47;;
6205;SDS011;3136;48.788;9.772;2023-03-29T04:01:03;5.73;;;2.70;;
6205;SDS011;3136;48.788;9.772;2023-03-29T04:03:30;4.70;;;2.07;;
6205;SDS011;3136;48.788;9.772;2023-03-29T04:05:58;4.97;;;2.20;;
6205;SDS011;3136;48.788;9.772;2023-03-29T04:08:25;3.73;;;1.80;;
6205;SDS011;3136;48.788;9.772;2023-03-29T04:10:51;4.03;;;2.00;;
6205;SDS011;3136;48.788;9.772;2023-03-29T04:13:18;3.10;;;1.97;;
6205;SDS011;3136;48.788;9.772;2023-03-29T04:15:43;2.57;;;1.93;;
6205;SDS011;3136;48.788;9.772;2023-03-29T04:18:10;3.83;;;1.87;;
6205;SDS011;3136;48.788;9.772;2023-03-29T04:20:36;4.00;;;2.40;;
6205;SDS011;3136;48.788;9.772;2023-03-29T04:23:02;2.37;;;1.73;;
6205;SDS011;3136;48.788;9.772;2023-03-29T04:25:27;2.77;;;2.00;;
6205;SDS011;3136;48.788;9.772;2023-03-29T04:27:53;5.40;;;2.00;;
6205;SDS011;3136;48.788;9.772;2023-03-29T04:30:19;2.33;;;2.00;;
6205;SDS011;3136;48.788;9.772;2023-03-29T04:32:45;4.77;;;2.10;;
6205;SDS011;3136;48.788;9.772;2023-03-29T04:35:11;3.53;;;2.00;;
6205;SDS011;3136;48.788;9.772;2023-03-29T04:37:36;5.03;;;2.10;;
6205;SDS011;3136;48.788;9.772;2023-03-29T04:40:05;4.63;;;2.00;;
6205;SDS011;3136;48.788;9.772;2023-03-29T04:42:38;4.93;;;2.37;;
6205;SDS011;3136;48.788;9.772;2023-03-29T04:45:06;3.60;;;2.20;;
6205;SDS011;3136;48.788;9.772;2023-03-29T04:47:32;5.67;;;2.13;;
6205;SDS011;3136;48.788;9.772;2023-03-29T04:50:00;4.77;;;2.20;;
6205;SDS011;3136;48.788;9.772;2023-03-29T04:52:26;3.67;;;2.20;;
6205;SDS011;3136;48.788;9.772;2023-03-29T04:54:52;2.07;;;1.80;;
6205;SDS011;3136;48.788;9.772;2023-03-29T04:57:17;2.97;;;2.10;;
6205;SDS011;3136;48.788;9.772;2023-03-29T04:59:43;2.70;;;2.10;;
6205;SDS011;3136;48.788;9.772;2023-03-29T05:02:09;2.57;;;2.03;;
6205;SDS011;3136;48.788;9.772;2023-03-29T05:04:34;4.17;;;1.87;;
6205;SDS011;3136;48.788;9.772;2023-03-29T05:07:00;5.37;;;2.30;;
6205;SDS011;3136;48.788;9.772;2023-03-29T05:09:26;3.77;;;2.60;;
6205;SDS011;3136;48.788;9.772;2023-03-29T05:11:52;6.23;;;2.97;;
6205;SDS011;3136;48.788;9.772;2023-03-29T05:14:18;4.23;;;3.07;;
6205;SDS011;3136;48.788;9.772;2023-03-29T05:16:44;4.33;;;3.20;;
6205;SDS011;3136;48.788;9.772;2023-03-29T05:19:09;6.70;;;3.93;;
6205;SDS011;3136;48.788;9.772;2023-03-29T05:21:35;7.03;;;3.90;;
6205;SDS011;3136;48.788;9.772;2023-03-29T05:24:01;9.53;;;3.80;;
6205;SDS011;3136;48.788;9.772;2023-03-29T05:26:27;6.00;;;3.87;;
6205;SDS011;3136;48.788;9.772;2023-03-29T05:28:53;5.90;;;3.70;;
6205;SDS011;3136;48.788;9.772;2023-03-29T05:31:19;5.33;;;4.00;;
6205;SDS011;3136;48.788;9.772;2023-03-29T05:33:48;5.13;;;3.73;;
6205;SDS011;3136;48.788;9.772;2023-03-29T05:36:15;5.60;;;3.30;;
6205;SDS011;3136;48.788;9.772;2023-03-29T05:38:43;6.67;;;2.90;;
6205;SDS011;3136;48.788;9.772;2023-03-29T05:41:11;4.50;;;3.30;;
6205;SDS011;3136;48.788;9.772;2023-03-29T05:43:37;4.60;;;3.13;;
6205;SDS011;3136;48.788;9.772;2023-03-29T05:46:03;5.30;;;3.70;;
6205;SDS011;3136;48.788;9.772;2023-03-29T05:48:30;4.80;;;2.90;;
6205;SDS011;3136;48.788;9.772;2023-03-29T05:50:56;5.67;;;2.60;;
6205;SDS011;3136;48.788;9.772;2023-03-29T05:53:23;4.63;;;3.77;;
6205;SDS011;3136;48.788;9.772;2023-03-29T05:55:50;5.13;;;3.50;;
6205;SDS011;3136;48.788;9.772;2023-03-29T05:58:16;4.67;;;2.60;;
6205;SDS011;3136;48.788;9.772;2023-03-29T06:00:44;4.30;;;2.70;;
6205;SDS011;3136;48.788;9.772;2023-03-29T06:03:16;6.33;;;2.53;;
6205;SDS011;3136;48.788;9.772;2023-03-29T06:05:45;8.23;;;2.30;;
6205;SDS011;3136;48.788;9.772;2023-03-29T06:08:12;3.67;;;2.53;;
6205;SDS011;3136;48.788;9.772;2023-03-29T06:10:38;3.43;;;2.40;;
6205;SDS011;3136;48.788;9.772;2023-03-29T06:13:04;3.43;;;2.40;;
6205;SDS011;3136;48.788;9.772;2023-03-29T06:15:31;3.00;;;2.07;;
6205;SDS011;3136;48.788;9.772;2023-03-29T06:17:57;3.40;;;2.43;;
6205;SDS011;3136;48.788;9.772;2023-03-29T06:20:23;3.00;;;2.30;;
6205;SDS011;3136;48.788;9.772;2023-03-29T06:22:49;4.90;;;2.30;;
6205;SDS011;3136;48.788;9.772;2023-03-29T06:25:14;3.53;;;2.20;;
6205;SDS011;3136;48.788;9.772;2023-03-29T06:27:41;4.50;;;1.87;;
6205;SDS011;3136;48.788;9.772;2023-03-29T06:30:07;2.80;;;2.10;;
6205;SDS011;3136;48.788;9.772;2023-03-29T06:32:33;2.80;;;2.10;;
6205;SDS011;3136;48.788;9.772;2023-03-29T06:35:00;3.97;;;2.27;;
6205;SDS011;3136;48.788;9.772;2023-03-29T06:37:26;3.10;;;2.07;;
6205;SDS011;3136;48.788;9.772;2023-03-29T06:39:53;3.90;;;2.10;;
6205;SDS011;3136;48.788;9.772;2023-03-29T06:42:19;7.77;;;4.87;;
6205;SDS011;3136;48.788;9.772;2023-03-29T06:44:45;7.23;;;3.47;;
6205;SDS011;3136;48.788;9.772;2023-03-29T06:47:11;5.30;;;2.37;;
6205;SDS011;3136;48.788;9.772;2023-03-29T06:49:41;3.70;;;1.97;;
6205;SDS011;3136;48.788;9.772;2023-03-29T06:52:07;4.93;;;2.37;;
6205;SDS011;3136;48.788;9.772;2023-03-29T06:54:33;2.90;;;2.10;;
6205;SDS011;3136;48.788;9.772;2023-03-29T06:56:59;4.30;;;2.43;;
6205;SDS011;3136;48.788;9.772;2023-03-29T06:59:26;4.73;;;2.60;;
6205;SDS011;3136;48.788;9.772;2023-03-29T07:01:51;8.87;;;3.30;;
6205;SDS011;3136;48.788;9.772;2023-03-29T07:04:20;4.10;;;2.90;;
6205;SDS011;3136;48.788;9.772;2023-03-29T07:06:47;4.30;;;2.30;;
6205;SDS011;3136;48.788;9.772;2023-03-29T07:09:25;5.13;;;2.20;;
6205;SDS011;3136;48.788;9.772;2023-03-29T07:11:53;4.00;;;2.00;;
6205;SDS011;3136;48.788;9.772;2023-03-29T07:14:20;6.60;;;2.20;;
6205;SDS011;3136;48.788;9.772;2023-03-29T07:16:45;4.10;;;2.40;;
6205;SDS011;3136;48.788;9.772;2023-03-29T07:19:13;3.30;;;2.30;;
6205;SDS011;3136;48.788;9.772;2023-03-29T07:21:39;6.77;;;2.53;;
6205;SDS011;3136;48.788;9.772;2023-03-29T07:24:05;4.20;;;2.47;;
6205;SDS011;3136;48.788;9.772;2023-03-29T07:26:30;5.17;;;2.73;;
6205;SDS011;3136;48.788;9.772;2023-03-29T07:28:56;6.23;;;2.37;;
6205;SDS011;3136;48.788;9.772;2023-03-29T07:31:22;4.40;;;2.40;;
6205;SDS011;3136;48.788;9.772;2023-03-29T07:33:48;5.93;;;2.47;;
6205;SDS011;3136;48.788;9.772;2023-03-29T07:36:16;4.37;;;2.70;;
6205;SDS011;3136;48.788;9.772;2023-03-29T07:38:42;6.20;;;2.80;;
6205;SDS011;3136;48.788;9.772;2023-03-29T07:41:07;10.37;;;2.60;;
6205;SDS011;3136;48.788;9.772;2023-03-29T07:43:33;5.87;;;2.53;;
6205;SDS011;3136;48.788;9.772;2023-03-29T07:46:00;5.13;;;2.30;;
6205;SDS011;3136;48.788;9.772;2023-03-29T07:48:26;6.63;;;2.20;;
6205;SDS011;3136;48.788;9.772;2023-03-29T07:50:52;4.87;;;2.50;;
6205;SDS011;3136;48.788;9.772;2023-03-29T07:53:17;5.07;;;2.33;;
6205;SDS011;3136;48.788;9.772;2023-03-29T07:55:43;4.87;;;2.20;;
6205;SDS011;3136;48.788;9.772;2023-03-29T07:58:13;4.43;;;2.03;;
6205;SDS011;3136;48.788;9.772;2023-03-29T08:00:38;4.13;;;2.00;;
6205;SDS011;3136;48.788;9.772;2023-03-29T08:03:05;13.20;;;2.73;;
6205;SDS011;3136;48.788;9.772;2023-03-29T08:05:32;7.07;;;2.30;;
6205;SDS011;3136;48.788;9.772;2023-03-29T08:07:57;6.03;;;2.30;;
6205;SDS011;3136;48.788;9.772;2023-03-29T08:10:23;13.27;;;2.30;;
6205;SDS011;3136;48.788;9.772;2023-03-29T08:12:49;3.43;;;2.40;;
6205;SDS011;3136;48.788;9.772;2023-03-29T08:15:16;3.37;;;2.13;;
6205;SDS011;3136;48.788;9.772;2023-03-29T08:17:42;4.57;;;1.87;;
6205;SDS011;3136;48.788;9.772;2023-03-29T08:20:10;6.10;;;1.70;;
6205;SDS011;3136;48.788;9.772;2023-03-29T08:22:37;1.63;;;1.50;;
6205;SDS011;3136;48.788;9.772;2023-03-29T08:25:03;2.73;;;1.60;;
6205;SDS011;3136;48.788;9.772;2023-03-29T08:27:30;2.63;;;1.67;;
6205;SDS011;3136;48.788;9.772;2023-03-29T08:29:56;2.47;;;1.63;;
6205;SDS011;3136;48.788;9.772;2023-03-29T08:32:21;2.87;;;1.77;;
6205;SDS011;3136;48.788;9.772;2023-03-29T08:34:47;2.90;;;1.70;;
6205;SDS011;3136;48.788;9.772;2023-03-29T08:37:12;2.10;;;1.53;;
6205;SDS011;3136;48.788;9.772;2023-03-29T08:39:38;1.43;;;1.33;;
6205;SDS011;3136;48.788;9.772;2023-03-29T08:42:27;3.50;;;1.90;;
6205;SDS011;3136;48.788;9.772;2023-03-29T08:47:57;2.23;;;1.90;;
6205;SDS011;3136;48.788;9.772;2023-03-29T08:50:43;3.47;;;1.70;;
6205;SDS011;3136;48.788;9.772;2023-03-29T08:53:14;3.80;;;1.53;;
6205;SDS011;3136;48.788;9.772;2023-03-29T08:55:44;3.93;;;1.77;;
6205;SDS011;3136;48.788;9.772;2023-03-29T08:58:13;2.50;;;1.53;;
6205;SDS011;3136;48.788;9.772;2023-03-29T09:00:43;1.77;;;1.60;;
6205;SDS011;3136;48.788;9.772;2023-03-29T09:03:25;1.50;;;1.40;;
6205;SDS011;3136;48.788;9.772;2023-03-29T09:06:06;2.23;;;1.23;;
6205;SDS011;3136;48.788;9.772;2023-03-29T09:08:40;4.03;;;1.60;;
6205;SDS011;3136;48.788;9.772;2023-03-29T09:11:19;4.37;;;1.47;;
6205;SDS011;3136;48.788;9.772;2023-03-29T09:16:45;3.83;;;1.50;;
6205;SDS011;3136;48.788;9.772;2023-03-29T09:19:26;2.20;;;1.60;;
6205;SDS011;3136;48.788;9.772;2023-03-29T09:24:37;2.83;;;1.70;;
6205;SDS011;3136;48.788;9.772;2023-03-29T09:27:25;3.20;;;2.00;;
6205;SDS011;3136;48.788;9.772;2023-03-29T09:30:01;2.23;;;1.50;;
6205;SDS011;3136;48.788;9.772;2023-03-29T09:35:10;7.03;;;2.17;;
6205;SDS011;3136;48.788;9.772;2023-03-29T09:37:45;2.33;;;1.60;;
6205;SDS011;3136;48.788;9.772;2023-03-29T09:40:17;3.10;;;1.50;;
6205;SDS011;3136;48.788;9.772;2023-03-29T09:42:48;1.60;;;1.50;;
6205;SDS011;3136;48.788;9.772;2023-03-29T09:45:16;2.47;;;1.50;;
6205;SDS011;3136;48.788;9.772;2023-03-29T09:47:44;4.07;;;1.50;;
6205;SDS011;3136;48.788;9.772;2023-03-29T09:50:18;1.97;;;1.50;;
6205;SDS011;3136;48.788;9.772;2023-03-29T09:52:48;2.17;;;1.53;;
6205;SDS011;3136;48.788;9.772;2023-03-29T09:55:14;5.53;;;1.77;;
6205;SDS011;3136;48.788;9.772;2023-03-29T09:57:42;1.90;;;1.40;;
6205;SDS011;3136;48.788;9.772;2023-03-29T10:00:09;3.17;;;1.40;;
6205;SDS011;3136;48.788;9.772;2023-03-29T10:02:37;2.37;;;1.40;;
6205;SDS011;3136;48.788;9.772;2023-03-29T10:05:04;2.17;;;1.50;;
6205;SDS011;3136;48.788;9.772;2023-03-29T10:07:37;3.03;;;1.50;;
6205;SDS011;3136;48.788;9.772;2023-03-29T10:10:09;3.13;;;1.50;;
6205;SDS011;3136;48.788;9.772;2023-03-29T10:12:44;2.10;;;1.50;;
6205;SDS011;3136;48.788;9.772;2023-03-29T10:15:14;4.40;;;1.60;;
6205;SDS011;3136;48.788;9.772;2023-03-29T10:17:41;3.53;;;1.50;;
6205;SDS011;3136;48.788;9.772;2023-03-29T10:20:12;2.10;;;1.40;;
6205;SDS011;3136;48.788;9.772;2023-03-29T10:22:44;2.27;;;1.30;;
6205;SDS011;3136;48.788;9.772;2023-03-29T10:25:18;3.30;;;1.60;;
6205;SDS011;3136;48.788;9.772;2023-03-29T10:27:44;3.83;;;1.40;;
6205;SDS011;3136;48.788;9.772;2023-03-29T10:30:16;4.93;;;1.70;;
6205;SDS011;3136;48.788;9.772;2023-03-29T10:32:45;2.83;;;1.63;;
6205;SDS011;3136;48.788;9.772;2023-03-29T10:35:29;2.50;;;1.53;;
6205;SDS011;3136;48.788;9.772;2023-03-29T10:37:58;5.77;;;1.87;;
6205;SDS011;3136;48.788;9.772;2023-03-29T10:42:58;2.73;;;1.50;;
6205;SDS011;3136;48.788;9.772;2023-03-29T10:45:27;3.83;;;1.60;;
6205;SDS011;3136;48.788;9.772;2023-03-29T10:47:55;2.77;;;1.70;;
6205;SDS011;3136;48.788;9.772;2023-03-29T10:50:22;2.50;;;1.30;;
6205;SDS011;3136;48.788;9.772;2023-03-29T10:52:47;2.57;;;1.50;;
6205;SDS011;3136;48.788;9.772;2023-03-29T10:55:14;1.47;;;1.30;;
6205;SDS011;3136;48.788;9.772;2023-03-29T11:00:31;3.20;;;1.50;;
6205;SDS011;3136;48.788;9.772;2023-03-29T11:03:14;3.17;;;1.43;;
6205;SDS011;3136;48.788;9.772;2023-03-29T11:08:51;2.73;;;1.57;;
6205;SDS011;3136;48.788;9.772;2023-03-29T11:11:29;3.87;;;1.30;;
6205;SDS011;3136;48.788;9.772;2023-03-29T11:29:27;2.97;;;1.50;;
6205;SDS011;3136;48.788;9.772;2023-03-29T11:40:44;3.53;;;1.50;;
6205;SDS011;3136;48.788;9.772;2023-03-29T11:43:29;2.67;;;1.30;;
6205;SDS011;3136;48.788;9.772;2023-03-29T11:46:07;3.53;;;1.43;;
6205;SDS011;3136;48.788;9.772;2023-03-29T11:49:00;3.20;;;1.50;;
6205;SDS011;3136;48.788;9.772;2023-03-29T11:51:53;2.47;;;1.47;;
6205;SDS011;3136;48.788;9.772;2023-03-29T11:56:58;2.60;;;1.30;;
6205;SDS011;3136;48.788;9.772;2023-03-29T11:59:32;3.83;;;1.47;;
6205;SDS011;3136;48.788;9.772;2023-03-29T12:05:08;4.30;;;1.60;;
6205;SDS011;3136;48.788;9.772;2023-03-29T12:07:58;5.47;;;1.43;;
6205;SDS011;3136;48.788;9.772;2023-03-29T12:10:44;4.17;;;1.60;;
6205;SDS011;3136;48.788;9.772;2023-03-29T12:13:16;1.93;;;1.60;;
6205;SDS011;3136;48.788;9.772;2023-03-29T12:18:54;3.67;;;1.60;;
6205;SDS011;3136;48.788;9.772;2023-03-29T12:21:23;2.87;;;1.40;;
6205;SDS011;3136;48.788;9.772;2023-03-29T12:23:50;2.27;;;1.50;;
6205;SDS011;3136;48.788;9.772;2023-03-29T12:35:08;2.67;;;1.40;;
6205;SDS011;3136;48.788;9.772;2023-03-29T12:38:02;2.77;;;1.50;;
6205;SDS011;3136;48.788;9.772;2023-03-29T12:40:53;1.63;;;1.30;;
6205;SDS011;3136;48.788;9.772;2023-03-29T12:43:37;4.20;;;1.53;;
6205;SDS011;3136;48.788;9.772;2023-03-29T12:46:06;2.33;;;1.53;;
6205;SDS011;3136;48.788;9.772;2023-03-29T12:48:40;3.00;;;1.50;;
6205;SDS011;3136;48.788;9.772;2023-03-29T12:51:12;5.80;;;1.93;;
6205;SDS011;3136;48.788;9.772;2023-03-29T12:53:50;2.58;;;1.50;;
6205;SDS011;3136;48.788;9.772;2023-03-29T12:56:21;4.33;;;1.43;;
6205;SDS011;3136;48.788;9.772;2023-03-29T13:01:32;1.93;;;1.40;;
6205;SDS011;3136;48.788;9.772;2023-03-29T13:06:32;4.00;;;1.43;;
6205;SDS011;3136;48.788;9.772;2023-03-29T13:11:54;2.90;;;1.20;;
6205;SDS011;3136;48.788;9.772;2023-03-29T13:14:33;3.33;;;1.40;;
6205;SDS011;3136;48.788;9.772;2023-03-29T13:17:01;4.83;;;1.50;;
6205;SDS011;3136;48.788;9.772;2023-03-29T13:22:23;2.20;;;1.37;;
6205;SDS011;3136;48.788;9.772;2023-03-29T13:38:59;2.60;;;1.30;;
6205;SDS011;3136;48.788;9.772;2023-03-29T13:41:43;3.23;;;1.20;;
6205;SDS011;3136;48.788;9.772;2023-03-29T13:46:46;2.13;;;1.17;;
6205;SDS011;3136;48.788;9.772;2023-03-29T13:49:22;2.30;;;0.97;;
6205;SDS011;3136;48.788;9.772;2023-03-29T13:54:44;2.83;;;1.10;;
6205;SDS011;3136;48.788;9.772;2023-03-29T13:57:35;1.93;;;1.20;;
6205;SDS011;3136;48.788;9.772;2023-03-29T14:00:19;1.80;;;1.10;;
6205;SDS011;3136;48.788;9.772;2023-03-29T14:02:52;2.97;;;1.10;;
6205;SDS011;3136;48.788;9.772;2023-03-29T14:05:31;1.37;;;1.10;;
6205;SDS011;3136;48.788;9.772;2023-03-29T14:08:06;1.83;;;1.10;;
6205;SDS011;3136;48.788;9.772;2023-03-29T14:10:40;1.57;;;1.20;;
6205;SDS011;3136;48.788;9.772;2023-03-29T14:13:12;1.27;;;1.00;;
6205;SDS011;3136;48.788;9.772;2023-03-29T14:15:41;1.73;;;1.30;;
6205;SDS011;3136;48.788;9.772;2023-03-29T14:18:15;1.50;;;1.23;;
6205;SDS011;3136;48.788;9.772;2023-03-29T14:20:45;2.57;;;1.07;;
6205;SDS011;3136;48.788;9.772;2023-03-29T14:23:14;1.77;;;1.07;;
6205;SDS011;3136;48.788;9.772;2023-03-29T14:25:44;1.60;;;1.13;;
6205;SDS011;3136;48.788;9.772;2023-03-29T14:30:53;2.50;;;1.20;;
6205;SDS011;3136;48.788;9.772;2023-03-29T14:33:26;2.07;;;1.17;;
6205;SDS011;3136;48.788;9.772;2023-03-29T14:35:59;5.10;;;1.40;;
6205;SDS011;3136;48.788;9.772;2023-03-29T14:38:27;1.57;;;1.07;;
6205;SDS011;3136;48.788;9.772;2023-03-29T14:40:56;3.27;;;1.40;;
6205;SDS011;3136;48.788;9.772;2023-03-29T14:43:23;2.20;;;1.10;;
6205;SDS011;3136;48.788;9.772;2023-03-29T14:45:53;4.27;;;1.10;;
6205;SDS011;3136;48.788;9.772;2023-03-29T14:48:20;4.43;;;1.20;;
6205;SDS011;3136;48.788;9.772;2023-03-29T14:50:47;3.87;;;1.30;;
6205;SDS011;3136;48.788;9.772;2023-03-29T14:53:17;2.07;;;1.10;;
6205;SDS011;3136;48.788;9.772;2023-03-29T14:55:50;2.17;;;1.20;;
6205;SDS011;3136;48.788;9.772;2023-03-29T14:58:26;1.67;;;1.30;;
6205;SDS011;3136;48.788;9.772;2023-03-29T15:00:55;1.63;;;1.00;;
6205;SDS011;3136;48.788;9.772;2023-03-29T15:03:21;2.93;;;1.50;;
6205;SDS011;3136;48.788;9.772;2023-03-29T15:05:56;3.50;;;1.07;;
6205;SDS011;3136;48.788;9.772;2023-03-29T15:08:30;2.43;;;0.90;;
6205;SDS011;3136;48.788;9.772;2023-03-29T15:10:59;1.90;;;1.10;;
6205;SDS011;3136;48.788;9.772;2023-03-29T15:13:25;3.23;;;1.10;;
6205;SDS011;3136;48.788;9.772;2023-03-29T15:15:52;2.27;;;1.70;;
6205;SDS011;3136;48.788;9.772;2023-03-29T15:18:27;2.40;;;1.10;;
6205;SDS011;3136;48.788;9.772;2023-03-29T15:21:02;2.23;;;1.03;;
6205;SDS011;3136;48.788;9.772;2023-03-29T15:23:39;2.40;;;1.23;;
6205;SDS011;3136;48.788;9.772;2023-03-29T15:26:29;3.87;;;1.40;;
6205;SDS011;3136;48.788;9.772;2023-03-29T15:31:52;3.10;;;1.10;;
6205;SDS011;3136;48.788;9.772;2023-03-29T15:34:23;1.83;;;1.20;;
6205;SDS011;3136;48.788;9.772;2023-03-29T15:36:54;2.57;;;1.50;;
6205;SDS011;3136;48.788;9.772;2023-03-29T15:39:21;3.03;;;1.33;;
6205;SDS011;3136;48.788;9.772;2023-03-29T15:41:48;3.30;;;1.40;;
6205;SDS011;3136;48.788;9.772;2023-03-29T15:44:15;2.03;;;1.10;;
6205;SDS011;3136;48.788;9.772;2023-03-29T15:46:44;2.67;;;1.40;;
6205;SDS011;3136;48.788;9.772;2023-03-29T15:49:10;2.10;;;1.13;;
6205;SDS011;3136;48.788;9.772;2023-03-29T15:51:37;2.63;;;1.40;;
6205;SDS011;3136;48.788;9.772;2023-03-29T15:54:03;3.70;;;1.17;;
6205;SDS011;3136;48.788;9.772;2023-03-29T15:56:30;3.13;;;1.30;;
6205;SDS011;3136;48.788;9.772;2023-03-29T15:59:01;2.00;;;1.30;;
6205;SDS011;3136;48.788;9.772;2023-03-29T16:01:30;2.03;;;1.20;;
6205;SDS011;3136;48.788;9.772;2023-03-29T16:04:03;2.40;;;1.10;;
6205;SDS011;3136;48.788;9.772;2023-03-29T16:06:30;3.67;;;1.57;;
6205;SDS011;3136;48.788;9.772;2023-03-29T16:08:56;2.43;;;1.10;;
6205;SDS011;3136;48.788;9.772;2023-03-29T16:11:21;3.70;;;1.33;;
6205;SDS011;3136;48.788;9.772;2023-03-29T16:13:48;3.83;;;1.20;;
6205;SDS011;3136;48.788;9.772;2023-03-29T16:16:13;6.63;;;1.40;;
6205;SDS011;3136;48.788;9.772;2023-03-29T16:18:39;2.80;;;1.33;;
6205;SDS011;3136;48.788;9.772;2023-03-29T16:21:05;3.20;;;1.37;;
6205;SDS011;3136;48.788;9.772;2023-03-29T16:23:31;1.93;;;1.40;;
6205;SDS011;3136;48.788;9.772;2023-03-29T16:25:56;3.53;;;1.43;;
6205;SDS011;3136;48.788;9.772;2023-03-29T16:28:23;2.20;;;1.40;;
6205;SDS011;3136;48.788;9.772;2023-03-29T16:30:49;4.40;;;1.50;;
6205;SDS011;3136;48.788;9.772;2023-03-29T16:33:14;1.40;;;1.30;;
6205;SDS011;3136;48.788;9.772;2023-03-29T16:35:40;3.40;;;1.40;;
6205;SDS011;3136;48.788;9.772;2023-03-29T16:38:06;3.13;;;1.43;;
6205;SDS011;3136;48.788;9.772;2023-03-29T16:40:33;3.40;;;1.30;;
6205;SDS011;3136;48.788;9.772;2023-03-29T16:42:59;2.73;;;1.37;;
6205;SDS011;3136;48.788;9.772;2023-03-29T16:45:25;3.77;;;1.20;;
6205;SDS011;3136;48.788;9.772;2023-03-29T16:47:51;1.23;;;1.10;;
6205;SDS011;3136;48.788;9.772;2023-03-29T16:50:17;2.03;;;1.47;;
6205;SDS011;3136;48.788;9.772;2023-03-29T16:52:44;3.60;;;1.60;;
6205;SDS011;3136;48.788;9.772;2023-03-29T16:55:12;6.27;;;1.73;;
6205;SDS011;3136;48.788;9.772;2023-03-29T16:57:39;4.67;;;1.30;;
6205;SDS011;3136;48.788;9.772;2023-03-29T17:00:06;3.40;;;1.30;;
6205;SDS011;3136;48.788;9.772;2023-03-29T17:02:34;4.37;;;1.37;;
6205;SDS011;3136;48.788;9.772;2023-03-29T17:05:00;4.53;;;1.50;;
6205;SDS011;3136;48.788;9.772;2023-03-29T17:07:26;2.30;;;1.50;;
6205;SDS011;3136;48.788;9.772;2023-03-29T17:09:53;1.47;;;1.30;;
6205;SDS011;3136;48.788;9.772;2023-03-29T17:12:19;1.63;;;1.30;;
6205;SDS011;3136;48.788;9.772;2023-03-29T17:14:45;7.00;;;1.57;;
6205;SDS011;3136;48.788;9.772;2023-03-29T17:17:12;9.93;;;1.90;;
6205;SDS011;3136;48.788;9.772;2023-03-29T17:19:37;2.97;;;1.53;;
6205;SDS011;3136;48.788;9.772;2023-03-29T17:22:03;5.83;;;1.70;;